sensor_id;sensor_type;location;lat;lon;timestamp;temperature;humidity
7143;DHT22;3613;48.902;9.204;2024-01-27T00:01:26;1.90;99.90
7143;DHT22;3613;48.902;9.204;2024-01-27T00:03:52;1.90;99.90
7143;DHT22;3613;48.902;9.204;2024-01-27T00:06:19;1.90;99.90
7143;DHT22;3613;48.902;9.204;2024-01-27T00:08:47;2.00;99.90
7143;DHT22;3613;48.902;9.204;2024-01-27T00:11:15;2.00;99.90
7143;DHT22;3613;48.902;9.204;2024-01-27T00:13:40;1.90;99.90
7143;DHT22;3613;48.902;9.204;2024-01-27T00:16:11;1.90;99.90
7143;DHT22;3613;48.902;9.204;2024-01-27T00:18:37;1.80;99.90
7143;DHT22;3613;48.902;9.204;2024-01-27T00:21:04;1.80;99.90
7143;DHT22;3613;48.902;9.204;2024-01-27T00:23:29;1.80;99.90
7143;DHT22;3613;48.902;9.204;2024-01-27T00:25:55;1.80;99.90
7143;DHT22;3613;48.902;9.204;2024-01-27T00:28:20;1.80;99.90
7143;DHT22;3613;48.902;9.204;2024-01-27T00:30:48;1.70;99.90
7143;DHT22;3613;48.902;9.204;2024-01-27T00:33:14;1.70;99.90
7143;DHT22;3613;48.902;9.204;2024-01-27T00:35:42;1.70;99.90
7143;DHT22;3613;48.902;9.204;2024-01-27T00:38:10;1.70;99.90
7143;DHT22;3613;48.902;9.204;2024-01-27T00:40:38;1.70;99.90
7143;DHT22;3613;48.902;9.204;2024-01-27T00:43:04;1.70;99.90
7143;DHT22;3613;48.902;9.204;2024-01-27T00:45:30;1.70;99.90
7143;DHT22;3613;48.902;9.204;2024-01-27T00:47:58;3.80;99.90
7143;DHT22;3613;48.902;9.204;2024-01-27T00:50:27;1.70;99.90
7143;DHT22;3613;48.902;9.204;2024-01-27T00:52:53;1.60;99.90
7143;DHT22;3613;48.902;9.204;2024-01-27T00:55:18;1.60;99.90
7143;DHT22;3613;48.902;9.204;2024-01-27T00:57:44;1.50;99.90
7143;DHT22;3613;48.902;9.204;2024-01-27T01:00:10;1.50;99.90
7143;DHT22;3613;48.902;9.204;2024-01-27T01:02:37;1.60;99.90
7143;DHT22;3613;48.902;9.204;2024-01-27T01:05:03;1.60;99.90
7143;DHT22;3613;48.902;9.204;2024-01-27T01:07:30;1.60;99.90
7143;DHT22;3613;48.902;9.204;2024-01-27T01:09:55;1.60;99.90
7143;DHT22;3613;48.902;9.204;2024-01-27T01:12:21;1.50;99.90
7143;DHT22;3613;48.902;9.204;2024-01-27T01:14:46;1.50;99.90
7143;DHT22;3613;48.902;9.204;2024-01-27T01:17:14;1.40;99.90
7143;DHT22;3613;48.902;9.204;2024-01-27T01:19:40;1.40;99.90
7143;DHT22;3613;48.902;9.204;2024-01-27T01:22:08;1.30;99.90
7143;DHT22;3613;48.902;9.204;2024-01-27T01:24:37;1.20;99.90
7143;DHT22;3613;48.902;9.204;2024-01-27T01:27:05;1.10;99.90
7143;DHT22;3613;48.902;9.204;2024-01-27T01:29:31;1.10;99.90
7143;DHT22;3613;48.902;9.204;2024-01-27T01:31:59;1.00;99.90
7143;DHT22;3613;48.902;9.204;2024-01-27T01:34:27;1.00;99.90
7143;DHT22;3613;48.902;9.204;2024-01-27T01:36:56;0.90;99.90
7143;DHT22;3613;48.902;9.204;2024-01-27T01:39:25;0.90;99.90
7143;DHT22;3613;48.902;9.204;2024-01-27T01:41:52;0.80;99.90
7143;DHT22;3613;48.902;9.204;2024-01-27T01:44:18;0.80;99.90
7143;DHT22;3613;48.902;9.204;2024-01-27T01:46:47;0.80;99.90
7143;DHT22;3613;48.902;9.204;2024-01-27T01:49:12;0.70;99.90
7143;DHT22;3613;48.902;9.204;2024-01-27T01:51:41;0.70;99.90
7143;DHT22;3613;48.902;9.204;2024-01-27T01:54:06;0.60;99.90
7143;DHT22;3613;48.902;9.204;2024-01-27T01:56:32;0.50;99.90
7143;DHT22;3613;48.902;9.204;2024-01-27T01:58:58;0.40;99.90
7143;DHT22;3613;48.902;9.204;2024-01-27T02:01:24;0.40;99.90
7143;DHT22;3613;48.902;9.204;2024-01-27T02:03:55;0.30;99.90
7143;DHT22;3613;48.902;9.204;2024-01-27T02:06:21;0.30;99.90
7143;DHT22;3613;48.902;9.204;2024-01-27T02:08:46;0.30;99.90
7143;DHT22;3613;48.902;9.204;2024-01-27T02:11:15;0.30;99.90
7143;DHT22;3613;48.902;9.204;2024-01-27T02:13:40;2.10;99.90
7143;DHT22;3613;48.902;9.204;2024-01-27T02:16:06;0.20;99.90
7143;DHT22;3613;48.902;9.204;2024-01-27T02:18:32;0.20;99.90
7143;DHT22;3613;48.902;9.204;2024-01-27T02:21:02;0.20;99.90
7143;DHT22;3613;48.902;9.204;2024-01-27T02:23:28;0.20;99.90
7143;DHT22;3613;48.902;9.204;2024-01-27T02:25:54;0.10;99.90
7143;DHT22;3613;48.902;9.204;2024-01-27T02:28:19;0.10;99.90
7143;DHT22;3613;48.902;9.204;2024-01-27T02:30:45;0.00;99.90
7143;DHT22;3613;48.902;9.204;2024-01-27T02:33:10;0.00;99.90
7143;DHT22;3613;48.902;9.204;2024-01-27T02:35:38;0.00;99.90
7143;DHT22;3613;48.902;9.204;2024-01-27T02:38:06;0.00;99.90
7143;DHT22;3613;48.902;9.204;2024-01-27T02:40:34;-0.10;99.90
7143;DHT22;3613;48.902;9.204;2024-01-27T02:42:59;0.00;99.90
7143;DHT22;3613;48.902;9.204;2024-01-27T02:45:25;0.10;99.90
7143;DHT22;3613;48.902;9.204;2024-01-27T02:47:50;0.10;99.90
7143;DHT22;3613;48.902;9.204;2024-01-27T02:50:16;0.00;99.90
7143;DHT22;3613;48.902;9.204;2024-01-27T02:52:42;0.00;99.90
7143;DHT22;3613;48.902;9.204;2024-01-27T02:55:07;-0.10;99.90
7143;DHT22;3613;48.902;9.204;2024-01-27T02:57:36;0.00;99.90
7143;DHT22;3613;48.902;9.204;2024-01-27T03:00:01;0.00;99.90
7143;DHT22;3613;48.902;9.204;2024-01-27T03:02:32;0.00;99.90
7143;DHT22;3613;48.902;9.204;2024-01-27T03:04:58;-0.10;99.90
7143;DHT22;3613;48.902;9.204;2024-01-27T03:07:24;-0.10;99.90
7143;DHT22;3613;48.902;9.204;2024-01-27T03:09:51;-0.10;99.90
7143;DHT22;3613;48.902;9.204;2024-01-27T03:12:19;-0.20;99.90
7143;DHT22;3613;48.902;9.204;2024-01-27T03:14:45;-0.20;99.90
7143;DHT22;3613;48.902;9.204;2024-01-27T03:17:11;-0.20;99.90
7143;DHT22;3613;48.902;9.204;2024-01-27T03:19:37;-0.30;99.90
7143;DHT22;3613;48.902;9.204;2024-01-27T03:22:05;-0.20;99.90
7143;DHT22;3613;48.902;9.204;2024-01-27T03:24:30;-0.20;99.90
7143;DHT22;3613;48.902;9.204;2024-01-27T03:26:56;-0.20;99.90
7143;DHT22;3613;48.902;9.204;2024-01-27T03:29:22;1.50;99.90
7143;DHT22;3613;48.902;9.204;2024-01-27T03:31:47;-0.10;99.90
7143;DHT22;3613;48.902;9.204;2024-01-27T03:34:14;-0.20;99.90
7143;DHT22;3613;48.902;9.204;2024-01-27T03:36:43;-0.30;99.90
7143;DHT22;3613;48.902;9.204;2024-01-27T03:39:08;-0.40;99.90
7143;DHT22;3613;48.902;9.204;2024-01-27T03:41:34;-0.50;99.90
7143;DHT22;3613;48.902;9.204;2024-01-27T03:44:02;-0.50;99.90
7143;DHT22;3613;48.902;9.204;2024-01-27T03:46:27;-0.60;99.90
7143;DHT22;3613;48.902;9.204;2024-01-27T03:48:53;-0.60;99.90
7143;DHT22;3613;48.902;9.204;2024-01-27T03:51:18;-0.60;99.90
7143;DHT22;3613;48.902;9.204;2024-01-27T03:53:46;-0.50;99.90
7143;DHT22;3613;48.902;9.204;2024-01-27T03:56:12;-0.60;99.90
7143;DHT22;3613;48.902;9.204;2024-01-27T03:58:38;-0.60;99.90
7143;DHT22;3613;48.902;9.204;2024-01-27T04:01:09;-0.60;99.90
7143;DHT22;3613;48.902;9.204;2024-01-27T04:03:34;-0.60;99.90
7143;DHT22;3613;48.902;9.204;2024-01-27T04:06:02;-0.70;99.90
7143;DHT22;3613;48.902;9.204;2024-01-27T04:08:33;-0.60;99.90
7143;DHT22;3613;48.902;9.204;2024-01-27T04:10:59;-0.60;99.90
7143;DHT22;3613;48.902;9.204;2024-01-27T04:13:25;-0.50;99.90
7143;DHT22;3613;48.902;9.204;2024-01-27T04:15:53;-0.60;99.90
7143;DHT22;3613;48.902;9.204;2024-01-27T04:18:22;-0.60;99.90
7143;DHT22;3613;48.902;9.204;2024-01-27T04:20:48;-0.60;99.90
7143;DHT22;3613;48.902;9.204;2024-01-27T04:23:14;1.50;99.90
7143;DHT22;3613;48.902;9.204;2024-01-27T04:25:43;-0.60;99.90
7143;DHT22;3613;48.902;9.204;2024-01-27T04:28:11;-0.70;99.90
7143;DHT22;3613;48.902;9.204;2024-01-27T04:30:38;-0.80;99.90
7143;DHT22;3613;48.902;9.204;2024-01-27T04:33:05;-0.80;99.90
7143;DHT22;3613;48.902;9.204;2024-01-27T04:35:32;-0.70;99.90
7143;DHT22;3613;48.902;9.204;2024-01-27T04:38:00;-0.60;99.90
7143;DHT22;3613;48.902;9.204;2024-01-27T04:40:26;-0.60;99.90
7143;DHT22;3613;48.902;9.204;2024-01-27T04:42:52;-0.60;99.90
7143;DHT22;3613;48.902;9.204;2024-01-27T04:45:18;1.20;99.90
7143;DHT22;3613;48.902;9.204;2024-01-27T04:47:45;-0.60;99.90
7143;DHT22;3613;48.902;9.204;2024-01-27T04:50:11;-0.60;99.90
7143;DHT22;3613;48.902;9.204;2024-01-27T04:52:37;-0.60;99.90
7143;DHT22;3613;48.902;9.204;2024-01-27T04:55:02;-0.60;99.90
7143;DHT22;3613;48.902;9.204;2024-01-27T04:57:31;-0.60;99.90
7143;DHT22;3613;48.902;9.204;2024-01-27T04:59:57;-0.50;99.90
7143;DHT22;3613;48.902;9.204;2024-01-27T05:02:22;-0.60;99.90
7143;DHT22;3613;48.902;9.204;2024-01-27T05:04:48;-0.70;99.90
7143;DHT22;3613;48.902;9.204;2024-01-27T05:07:15;-0.80;99.90
7143;DHT22;3613;48.902;9.204;2024-01-27T05:09:41;-1.00;99.90
7143;DHT22;3613;48.902;9.204;2024-01-27T05:12:07;-0.90;99.90
7143;DHT22;3613;48.902;9.204;2024-01-27T05:14:32;-0.90;99.90
7143;DHT22;3613;48.902;9.204;2024-01-27T05:17:00;-0.90;99.90
7143;DHT22;3613;48.902;9.204;2024-01-27T05:19:28;-0.90;99.90
7143;DHT22;3613;48.902;9.204;2024-01-27T05:21:54;-0.90;99.90
7143;DHT22;3613;48.902;9.204;2024-01-27T05:24:23;-0.90;99.90
7143;DHT22;3613;48.902;9.204;2024-01-27T05:26:48;-1.00;99.90
7143;DHT22;3613;48.902;9.204;2024-01-27T05:29:14;-0.80;99.90
7143;DHT22;3613;48.902;9.204;2024-01-27T05:31:39;-0.80;99.90
7143;DHT22;3613;48.902;9.204;2024-01-27T05:34:08;-0.80;99.90
7143;DHT22;3613;48.902;9.204;2024-01-27T05:36:36;-0.80;99.90
7143;DHT22;3613;48.902;9.204;2024-01-27T05:39:02;-0.80;99.90
7143;DHT22;3613;48.902;9.204;2024-01-27T05:41:32;-0.80;99.90
7143;DHT22;3613;48.902;9.204;2024-01-27T05:43:58;-0.90;99.90
7143;DHT22;3613;48.902;9.204;2024-01-27T05:46:24;-1.00;99.90
7143;DHT22;3613;48.902;9.204;2024-01-27T05:48:52;-1.00;99.90
7143;DHT22;3613;48.902;9.204;2024-01-27T05:51:20;-1.10;99.90
7143;DHT22;3613;48.902;9.204;2024-01-27T05:53:50;-1.00;99.90
7143;DHT22;3613;48.902;9.204;2024-01-27T05:56:15;-0.80;99.90
7143;DHT22;3613;48.902;9.204;2024-01-27T05:58:44;-1.00;99.90
7143;DHT22;3613;48.902;9.204;2024-01-27T06:01:09;-0.90;99.90
7143;DHT22;3613;48.902;9.204;2024-01-27T06:03:35;-1.00;99.90
7143;DHT22;3613;48.902;9.204;2024-01-27T06:06:01;-1.00;99.90
7143;DHT22;3613;48.902;9.204;2024-01-27T06:08:26;-1.10;99.90
7143;DHT22;3613;48.902;9.204;2024-01-27T06:10:55;-1.10;99.90
7143;DHT22;3613;48.902;9.204;2024-01-27T06:13:20;-1.00;99.90
7143;DHT22;3613;48.902;9.204;2024-01-27T06:15:48;-1.00;99.90
7143;DHT22;3613;48.902;9.204;2024-01-27T06:18:13;-0.90;99.90
7143;DHT22;3613;48.902;9.204;2024-01-27T06:20:41;-0.90;99.90
7143;DHT22;3613;48.902;9.204;2024-01-27T06:23:08;-0.90;99.90
7143;DHT22;3613;48.902;9.204;2024-01-27T06:25:34;-0.90;99.90
7143;DHT22;3613;48.902;9.204;2024-01-27T06:27:59;-0.90;99.90
7143;DHT22;3613;48.902;9.204;2024-01-27T06:30:25;-1.00;99.90
7143;DHT22;3613;48.902;9.204;2024-01-27T06:32:51;-1.00;99.90
7143;DHT22;3613;48.902;9.204;2024-01-27T06:35:18;-1.10;99.90
7143;DHT22;3613;48.902;9.204;2024-01-27T06:37:44;-1.20;99.90
7143;DHT22;3613;48.902;9.204;2024-01-27T06:40:10;-1.10;99.90
7143;DHT22;3613;48.902;9.204;2024-01-27T06:42:36;-1.00;99.90
7143;DHT22;3613;48.902;9.204;2024-01-27T06:45:02;-1.10;99.90
7143;DHT22;3613;48.902;9.204;2024-01-27T06:47:28;-1.10;99.90
7143;DHT22;3613;48.902;9.204;2024-01-27T06:49:54;-1.20;99.90
7143;DHT22;3613;48.902;9.204;2024-01-27T06:52:19;-1.20;99.90
7143;DHT22;3613;48.902;9.204;2024-01-27T06:54:48;-0.20;99.90
7143;DHT22;3613;48.902;9.204;2024-01-27T06:57:21;-1.30;99.90
7143;DHT22;3613;48.902;9.204;2024-01-27T06:59:51;-1.30;99.90
7143;DHT22;3613;48.902;9.204;2024-01-27T07:02:28;-1.20;99.90
7143;DHT22;3613;48.902;9.204;2024-01-27T07:05:01;-1.20;99.90
7143;DHT22;3613;48.902;9.204;2024-01-27T07:07:28;-1.20;99.90
7143;DHT22;3613;48.902;9.204;2024-01-27T07:10:00;-1.20;99.90
7143;DHT22;3613;48.902;9.204;2024-01-27T07:12:30;-1.10;99.90
7143;DHT22;3613;48.902;9.204;2024-01-27T07:14:58;-1.00;99.90
7143;DHT22;3613;48.902;9.204;2024-01-27T07:17:27;-1.00;99.90
7143;DHT22;3613;48.902;9.204;2024-01-27T07:19:53;-1.10;99.90
7143;DHT22;3613;48.902;9.204;2024-01-27T07:22:21;-1.10;99.90
7143;DHT22;3613;48.902;9.204;2024-01-27T07:24:47;-1.00;99.90
7143;DHT22;3613;48.902;9.204;2024-01-27T07:27:16;-0.90;99.90
7143;DHT22;3613;48.902;9.204;2024-01-27T07:29:42;-0.80;99.90
7143;DHT22;3613;48.902;9.204;2024-01-27T07:32:07;-0.80;99.90
7143;DHT22;3613;48.902;9.204;2024-01-27T07:34:44;-0.90;99.90
7143;DHT22;3613;48.902;9.204;2024-01-27T07:37:10;-0.90;99.90
7143;DHT22;3613;48.902;9.204;2024-01-27T07:39:35;-0.80;99.90
7143;DHT22;3613;48.902;9.204;2024-01-27T07:42:01;-0.80;99.90
7143;DHT22;3613;48.902;9.204;2024-01-27T07:44:27;-0.70;99.90
7143;DHT22;3613;48.902;9.204;2024-01-27T07:46:52;-0.70;99.90
7143;DHT22;3613;48.902;9.204;2024-01-27T07:49:18;-0.70;99.90
7143;DHT22;3613;48.902;9.204;2024-01-27T07:51:45;-0.70;99.90
7143;DHT22;3613;48.902;9.204;2024-01-27T07:54:11;-0.60;99.90
7143;DHT22;3613;48.902;9.204;2024-01-27T07:56:40;-0.50;99.90
7143;DHT22;3613;48.902;9.204;2024-01-27T07:59:06;-0.40;99.90
7143;DHT22;3613;48.902;9.204;2024-01-27T08:01:39;-0.40;99.90
7143;DHT22;3613;48.902;9.204;2024-01-27T08:04:05;-0.30;99.90
7143;DHT22;3613;48.902;9.204;2024-01-27T08:06:45;0.00;99.90
7143;DHT22;3613;48.902;9.204;2024-01-27T08:09:13;-0.10;99.90
7143;DHT22;3613;48.902;9.204;2024-01-27T08:11:39;-0.10;99.90
7143;DHT22;3613;48.902;9.204;2024-01-27T08:14:05;0.00;99.90
7143;DHT22;3613;48.902;9.204;2024-01-27T08:16:30;0.00;99.90
7143;DHT22;3613;48.902;9.204;2024-01-27T08:18:56;-0.10;99.90
7143;DHT22;3613;48.902;9.204;2024-01-27T08:21:24;0.10;99.90
7143;DHT22;3613;48.902;9.204;2024-01-27T08:23:50;-0.20;99.90
7143;DHT22;3613;48.902;9.204;2024-01-27T08:26:15;-0.10;99.90
7143;DHT22;3613;48.902;9.204;2024-01-27T08:28:41;0.00;99.90
7143;DHT22;3613;48.902;9.204;2024-01-27T08:31:10;0.10;99.90
7143;DHT22;3613;48.902;9.204;2024-01-27T08:33:35;0.20;99.90
7143;DHT22;3613;48.902;9.204;2024-01-27T08:36:01;0.40;99.90
7143;DHT22;3613;48.902;9.204;2024-01-27T08:38:27;0.90;99.90
7143;DHT22;3613;48.902;9.204;2024-01-27T08:40:53;1.40;99.90
7143;DHT22;3613;48.902;9.204;2024-01-27T08:43:18;1.90;99.90
7143;DHT22;3613;48.902;9.204;2024-01-27T08:45:44;2.40;99.90
7143;DHT22;3613;48.902;9.204;2024-01-27T08:48:10;3.10;99.90
7143;DHT22;3613;48.902;9.204;2024-01-27T08:50:36;3.70;99.90
7143;DHT22;3613;48.902;9.204;2024-01-27T08:53:02;4.20;99.90
7143;DHT22;3613;48.902;9.204;2024-01-27T08:55:28;5.00;99.90
7143;DHT22;3613;48.902;9.204;2024-01-27T08:57:54;6.00;99.90
7143;DHT22;3613;48.902;9.204;2024-01-27T09:00:20;6.70;99.90
7143;DHT22;3613;48.902;9.204;2024-01-27T09:02:46;6.50;99.90
7143;DHT22;3613;48.902;9.204;2024-01-27T09:05:13;7.60;99.90
7143;DHT22;3613;48.902;9.204;2024-01-27T09:07:38;7.70;99.90
7143;DHT22;3613;48.902;9.204;2024-01-27T09:10:04;7.70;99.90
7143;DHT22;3613;48.902;9.204;2024-01-27T09:12:33;7.80;99.90
7143;DHT22;3613;48.902;9.204;2024-01-27T09:15:03;8.20;99.90
7143;DHT22;3613;48.902;9.204;2024-01-27T09:17:32;8.40;99.90
7143;DHT22;3613;48.902;9.204;2024-01-27T09:20:00;8.30;99.90
7143;DHT22;3613;48.902;9.204;2024-01-27T09:22:28;8.50;99.90
7143;DHT22;3613;48.902;9.204;2024-01-27T09:24:53;8.90;99.90
7143;DHT22;3613;48.902;9.204;2024-01-27T09:27:20;8.90;99.90
7143;DHT22;3613;48.902;9.204;2024-01-27T09:29:46;9.00;99.90
7143;DHT22;3613;48.902;9.204;2024-01-27T09:32:16;9.10;99.90
7143;DHT22;3613;48.902;9.204;2024-01-27T09:34:42;9.10;99.90
7143;DHT22;3613;48.902;9.204;2024-01-27T09:37:09;9.20;99.90
7143;DHT22;3613;48.902;9.204;2024-01-27T09:39:37;9.00;99.90
7143;DHT22;3613;48.902;9.204;2024-01-27T09:42:07;8.70;99.90
7143;DHT22;3613;48.902;9.204;2024-01-27T09:44:35;8.60;99.90
7143;DHT22;3613;48.902;9.204;2024-01-27T09:47:03;8.90;99.90
7143;DHT22;3613;48.902;9.204;2024-01-27T09:49:31;9.00;99.90
7143;DHT22;3613;48.902;9.204;2024-01-27T09:51:57;9.10;99.90
7143;DHT22;3613;48.902;9.204;2024-01-27T09:54:22;8.60;99.90
7143;DHT22;3613;48.902;9.204;2024-01-27T09:56:51;8.20;99.90
7143;DHT22;3613;48.902;9.204;2024-01-27T09:59:17;7.80;99.90
7143;DHT22;3613;48.902;9.204;2024-01-27T10:01:46;7.50;99.90
7143;DHT22;3613;48.902;9.204;2024-01-27T10:04:18;7.20;99.90
7143;DHT22;3613;48.902;9.204;2024-01-27T10:06:44;7.10;99.90
7143;DHT22;3613;48.902;9.204;2024-01-27T10:09:14;7.80;99.90
7143;DHT22;3613;48.902;9.204;2024-01-27T10:11:45;7.90;99.90
7143;DHT22;3613;48.902;9.204;2024-01-27T10:14:11;8.30;99.90
7143;DHT22;3613;48.902;9.204;2024-01-27T10:16:55;8.50;99.90
7143;DHT22;3613;48.902;9.204;2024-01-27T10:19:20;8.50;99.90
7143;DHT22;3613;48.902;9.204;2024-01-27T10:21:59;8.40;99.90
7143;DHT22;3613;48.902;9.204;2024-01-27T10:24:25;8.50;99.90
7143;DHT22;3613;48.902;9.204;2024-01-27T10:26:50;8.60;99.90
7143;DHT22;3613;48.902;9.204;2024-01-27T10:29:16;8.40;99.90
7143;DHT22;3613;48.902;9.204;2024-01-27T10:31:44;8.10;99.90
7143;DHT22;3613;48.902;9.204;2024-01-27T10:34:12;7.80;99.90
7143;DHT22;3613;48.902;9.204;2024-01-27T10:36:41;7.50;99.90
7143;DHT22;3613;48.902;9.204;2024-01-27T10:39:18;7.50;99.90
7143;DHT22;3613;48.902;9.204;2024-01-27T10:41:46;7.70;99.90
7143;DHT22;3613;48.902;9.204;2024-01-27T10:44:18;7.50;99.90
7143;DHT22;3613;48.902;9.204;2024-01-27T10:46:46;7.60;99.90
7143;DHT22;3613;48.902;9.204;2024-01-27T10:49:13;7.50;99.90
7143;DHT22;3613;48.902;9.204;2024-01-27T10:51:50;7.40;99.90
7143;DHT22;3613;48.902;9.204;2024-01-27T10:54:25;7.40;99.90
7143;DHT22;3613;48.902;9.204;2024-01-27T10:56:53;7.30;99.90
7143;DHT22;3613;48.902;9.204;2024-01-27T10:59:21;7.30;99.90
7143;DHT22;3613;48.902;9.204;2024-01-27T11:01:49;7.20;99.90
7143;DHT22;3613;48.902;9.204;2024-01-27T11:04:21;7.30;99.90
7143;DHT22;3613;48.902;9.204;2024-01-27T11:06:50;6.80;99.90
7143;DHT22;3613;48.902;9.204;2024-01-27T11:09:19;6.60;99.90
7143;DHT22;3613;48.902;9.204;2024-01-27T11:11:48;4.30;99.90
7143;DHT22;3613;48.902;9.204;2024-01-27T11:14:14;6.50;99.90
7143;DHT22;3613;48.902;9.204;2024-01-27T11:16:39;6.50;99.90
7143;DHT22;3613;48.902;9.204;2024-01-27T11:19:10;6.50;99.90
7143;DHT22;3613;48.902;9.204;2024-01-27T11:21:39;6.60;99.90
7143;DHT22;3613;48.902;9.204;2024-01-27T11:24:23;6.70;99.90
7143;DHT22;3613;48.902;9.204;2024-01-27T11:27:03;7.10;99.90
7143;DHT22;3613;48.902;9.204;2024-01-27T11:29:32;7.50;99.90
7143;DHT22;3613;48.902;9.204;2024-01-27T11:32:00;7.60;99.90
7143;DHT22;3613;48.902;9.204;2024-01-27T11:34:27;7.70;99.90
7143;DHT22;3613;48.902;9.204;2024-01-27T11:36:53;7.90;99.90
7143;DHT22;3613;48.902;9.204;2024-01-27T11:39:39;8.30;99.90
7143;DHT22;3613;48.902;9.204;2024-01-27T11:42:14;8.80;99.90
7143;DHT22;3613;48.902;9.204;2024-01-27T11:44:40;9.10;99.90
7143;DHT22;3613;48.902;9.204;2024-01-27T11:47:17;9.20;99.90
7143;DHT22;3613;48.902;9.204;2024-01-27T11:49:50;9.60;99.90
7143;DHT22;3613;48.902;9.204;2024-01-27T11:52:19;9.70;99.90
7143;DHT22;3613;48.902;9.204;2024-01-27T11:54:44;9.70;99.90
7143;DHT22;3613;48.902;9.204;2024-01-27T11:57:12;9.70;99.90
7143;DHT22;3613;48.902;9.204;2024-01-27T11:59:41;9.70;99.90
7143;DHT22;3613;48.902;9.204;2024-01-27T12:02:06;10.30;99.90
7143;DHT22;3613;48.902;9.204;2024-01-27T12:04:32;10.50;99.90
7143;DHT22;3613;48.902;9.204;2024-01-27T12:06:59;10.70;99.90
7143;DHT22;3613;48.902;9.204;2024-01-27T12:09:25;10.80;99.90
7143;DHT22;3613;48.902;9.204;2024-01-27T12:11:50;10.80;99.90
7143;DHT22;3613;48.902;9.204;2024-01-27T12:14:17;11.20;99.90
7143;DHT22;3613;48.902;9.204;2024-01-27T12:16:42;11.70;99.90
7143;DHT22;3613;48.902;9.204;2024-01-27T12:19:12;11.80;99.90
7143;DHT22;3613;48.902;9.204;2024-01-27T12:21:49;11.90;99.90
7143;DHT22;3613;48.902;9.204;2024-01-27T12:24:19;12.30;1.00
7143;DHT22;3613;48.902;9.204;2024-01-27T12:26:45;12.50;99.90
7143;DHT22;3613;48.902;9.204;2024-01-27T12:29:13;13.00;99.90
7143;DHT22;3613;48.902;9.204;2024-01-27T12:31:41;13.10;99.90
7143;DHT22;3613;48.902;9.204;2024-01-27T12:34:07;13.60;99.90
7143;DHT22;3613;48.902;9.204;2024-01-27T12:36:40;13.30;99.90
7143;DHT22;3613;48.902;9.204;2024-01-27T12:39:06;13.10;99.90
7143;DHT22;3613;48.902;9.204;2024-01-27T12:41:32;12.80;99.90
7143;DHT22;3613;48.902;9.204;2024-01-27T12:44:01;12.80;99.90
7143;DHT22;3613;48.902;9.204;2024-01-27T12:46:30;12.70;99.90
7143;DHT22;3613;48.902;9.204;2024-01-27T12:48:56;12.50;99.90
7143;DHT22;3613;48.902;9.204;2024-01-27T12:51:24;12.60;99.90
7143;DHT22;3613;48.902;9.204;2024-01-27T12:53:50;14.50;99.90
7143;DHT22;3613;48.902;9.204;2024-01-27T12:56:15;13.00;99.90
7143;DHT22;3613;48.902;9.204;2024-01-27T12:58:42;13.20;99.90
7143;DHT22;3613;48.902;9.204;2024-01-27T13:01:09;13.60;99.90
7143;DHT22;3613;48.902;9.204;2024-01-27T13:03:38;13.90;99.90
7143;DHT22;3613;48.902;9.204;2024-01-27T13:06:04;13.50;99.90
7143;DHT22;3613;48.902;9.204;2024-01-27T13:08:32;13.20;99.90
7143;DHT22;3613;48.902;9.204;2024-01-27T13:10:59;12.50;99.90
7143;DHT22;3613;48.902;9.204;2024-01-27T13:13:24;12.20;99.90
7143;DHT22;3613;48.902;9.204;2024-01-27T13:15:50;11.80;99.90
7143;DHT22;3613;48.902;9.204;2024-01-27T13:18:18;11.70;99.90
7143;DHT22;3613;48.902;9.204;2024-01-27T13:20:43;11.50;99.90
7143;DHT22;3613;48.902;9.204;2024-01-27T13:23:09;11.20;99.90
7143;DHT22;3613;48.902;9.204;2024-01-27T13:25:37;10.90;99.90
7143;DHT22;3613;48.902;9.204;2024-01-27T13:28:03;10.70;99.90
7143;DHT22;3613;48.902;9.204;2024-01-27T13:30:28;11.00;99.90
7143;DHT22;3613;48.902;9.204;2024-01-27T13:32:54;11.60;99.90
7143;DHT22;3613;48.902;9.204;2024-01-27T13:35:20;12.10;99.90
7143;DHT22;3613;48.902;9.204;2024-01-27T13:37:48;12.60;99.90
7143;DHT22;3613;48.902;9.204;2024-01-27T13:40:14;13.30;99.90
7143;DHT22;3613;48.902;9.204;2024-01-27T13:42:39;13.70;99.90
7143;DHT22;3613;48.902;9.204;2024-01-27T13:45:05;13.40;99.90
7143;DHT22;3613;48.902;9.204;2024-01-27T13:47:34;12.70;99.90
7143;DHT22;3613;48.902;9.204;2024-01-27T13:49:59;11.90;99.90
7143;DHT22;3613;48.902;9.204;2024-01-27T13:52:25;11.00;99.90
7143;DHT22;3613;48.902;9.204;2024-01-27T13:54:51;9.90;99.90
7143;DHT22;3613;48.902;9.204;2024-01-27T13:57:16;9.00;99.90
7143;DHT22;3613;48.902;9.204;2024-01-27T13:59:44;8.40;99.90
7143;DHT22;3613;48.902;9.204;2024-01-27T14:02:10;7.90;99.90
7143;DHT22;3613;48.902;9.204;2024-01-27T14:04:35;7.60;99.90
7143;DHT22;3613;48.902;9.204;2024-01-27T14:07:01;7.40;99.90
7143;DHT22;3613;48.902;9.204;2024-01-27T14:09:32;7.20;99.90
7143;DHT22;3613;48.902;9.204;2024-01-27T14:11:57;7.10;99.90
7143;DHT22;3613;48.902;9.204;2024-01-27T14:14:23;7.00;99.90
7143;DHT22;3613;48.902;9.204;2024-01-27T14:16:51;6.90;99.90
7143;DHT22;3613;48.902;9.204;2024-01-27T14:19:16;6.90;99.90
7143;DHT22;3613;48.902;9.204;2024-01-27T14:21:45;6.80;99.90
7143;DHT22;3613;48.902;9.204;2024-01-27T14:24:12;6.80;99.90
7143;DHT22;3613;48.902;9.204;2024-01-27T14:26:38;6.70;99.90
7143;DHT22;3613;48.902;9.204;2024-01-27T14:29:04;6.70;99.90
7143;DHT22;3613;48.902;9.204;2024-01-27T14:31:34;6.60;99.90
7143;DHT22;3613;48.902;9.204;2024-01-27T14:34:00;6.60;99.90
7143;DHT22;3613;48.902;9.204;2024-01-27T14:36:25;6.60;99.90
7143;DHT22;3613;48.902;9.204;2024-01-27T14:38:51;6.50;99.90
7143;DHT22;3613;48.902;9.204;2024-01-27T14:41:17;6.60;99.90
7143;DHT22;3613;48.902;9.204;2024-01-27T14:43:42;6.50;99.90
7143;DHT22;3613;48.902;9.204;2024-01-27T14:46:10;6.50;99.90
7143;DHT22;3613;48.902;9.204;2024-01-27T14:48:36;6.50;99.90
7143;DHT22;3613;48.902;9.204;2024-01-27T14:51:01;6.50;99.90
7143;DHT22;3613;48.902;9.204;2024-01-27T14:53:31;6.50;99.90
7143;DHT22;3613;48.902;9.204;2024-01-27T14:55:57;6.50;99.90
7143;DHT22;3613;48.902;9.204;2024-01-27T14:58:23;6.40;99.90
7143;DHT22;3613;48.902;9.204;2024-01-27T15:00:48;6.40;99.90
7143;DHT22;3613;48.902;9.204;2024-01-27T15:03:23;6.30;99.90
7143;DHT22;3613;48.902;9.204;2024-01-27T15:05:50;6.30;99.90
7143;DHT22;3613;48.902;9.204;2024-01-27T15:08:16;6.20;99.90
7143;DHT22;3613;48.902;9.204;2024-01-27T15:10:45;6.20;99.90
7143;DHT22;3613;48.902;9.204;2024-01-27T15:13:11;6.20;99.90
7143;DHT22;3613;48.902;9.204;2024-01-27T15:15:40;6.20;99.90
7143;DHT22;3613;48.902;9.204;2024-01-27T15:18:08;6.20;99.90
7143;DHT22;3613;48.902;9.204;2024-01-27T15:20:37;6.20;99.90
7143;DHT22;3613;48.902;9.204;2024-01-27T15:23:03;6.10;99.90
7143;DHT22;3613;48.902;9.204;2024-01-27T15:25:28;6.10;99.90
7143;DHT22;3613;48.902;9.204;2024-01-27T15:27:54;6.20;99.90
7143;DHT22;3613;48.902;9.204;2024-01-27T15:30:22;6.00;99.90
7143;DHT22;3613;48.902;9.204;2024-01-27T15:32:48;6.00;99.90
7143;DHT22;3613;48.902;9.204;2024-01-27T15:35:14;6.00;99.90
7143;DHT22;3613;48.902;9.204;2024-01-27T15:37:40;5.80;99.90
7143;DHT22;3613;48.902;9.204;2024-01-27T15:40:11;5.70;99.90
7143;DHT22;3613;48.902;9.204;2024-01-27T15:42:38;5.70;99.90
7143;DHT22;3613;48.902;9.204;2024-01-27T15:45:04;5.60;99.90
7143;DHT22;3613;48.902;9.204;2024-01-27T15:47:30;5.40;99.90
7143;DHT22;3613;48.902;9.204;2024-01-27T15:49:58;5.20;99.90
7143;DHT22;3613;48.902;9.204;2024-01-27T15:52:32;5.00;99.90
7143;DHT22;3613;48.902;9.204;2024-01-27T15:55:00;4.80;99.90
7143;DHT22;3613;48.902;9.204;2024-01-27T15:57:25;4.60;99.90
7143;DHT22;3613;48.902;9.204;2024-01-27T15:59:52;4.40;99.90
7143;DHT22;3613;48.902;9.204;2024-01-27T16:02:18;4.30;99.90
7143;DHT22;3613;48.902;9.204;2024-01-27T16:04:43;4.20;99.90
7143;DHT22;3613;48.902;9.204;2024-01-27T16:07:10;4.10;99.90
7143;DHT22;3613;48.902;9.204;2024-01-27T16:09:38;4.00;99.90